sensor_id;sensor_type;location;lat;lon;timestamp;pressure;altitude;pressure_sealevel;temperature;humidity
20455;BME280;10386;54.314;10.022;2023-04-07T00:00:24;102017.31;;;5.95;100.00
20455;BME280;10386;54.314;10.022;2023-04-07T00:02:51;102024.66;;;5.90;100.00
20455;BME280;10386;54.314;10.022;2023-04-07T00:05:18;102032.69;;;5.92;100.00
20455;BME280;10386;54.314;10.022;2023-04-07T00:07:44;102030.38;;;5.81;100.00
20455;BME280;10386;54.314;10.022;2023-04-07T00:10:23;102030.25;;;5.84;100.00
20455;BME280;10386;54.314;10.022;2023-04-07T00:12:50;102029.25;;;5.87;100.00
20455;BME280;10386;54.314;10.022;2023-04-07T00:15:17;102035.22;;;5.98;100.00
20455;BME280;10386;54.314;10.022;2023-04-07T00:17:44;102030.19;;;5.86;100.00
20455;BME280;10386;54.314;10.022;2023-04-07T00:20:11;102039.00;;;5.91;100.00
20455;BME280;10386;54.314;10.022;2023-04-07T00:22:38;102034.38;;;5.96;100.00
20455;BME280;10386;54.314;10.022;2023-04-07T00:25:05;102035.59;;;5.86;100.00
20455;BME280;10386;54.314;10.022;2023-04-07T00:27:32;102034.56;;;5.90;100.00
20455;BME280;10386;54.314;10.022;2023-04-07T00:29:59;102033.94;;;5.82;100.00
20455;BME280;10386;54.314;10.022;2023-04-07T00:32:26;102033.09;;;5.80;100.00
20455;BME280;10386;54.314;10.022;2023-04-07T00:34:52;102031.41;;;5.76;100.00
20455;BME280;10386;54.314;10.022;2023-04-07T00:37:19;102034.06;;;5.77;100.00
20455;BME280;10386;54.314;10.022;2023-04-07T00:39:46;102034.19;;;5.73;100.00
20455;BME280;10386;54.314;10.022;2023-04-07T00:42:12;102035.91;;;5.75;100.00
20455;BME280;10386;54.314;10.022;2023-04-07T00:44:39;102032.41;;;5.73;100.00
20455;BME280;10386;54.314;10.022;2023-04-07T00:47:06;102038.50;;;5.80;100.00
20455;BME280;10386;54.314;10.022;2023-04-07T00:49:35;102039.59;;;5.73;100.00
20455;BME280;10386;54.314;10.022;2023-04-07T00:52:04;102045.88;;;5.73;100.00
20455;BME280;10386;54.314;10.022;2023-04-07T00:54:33;102044.81;;;5.79;100.00
20455;BME280;10386;54.314;10.022;2023-04-07T00:57:00;102048.59;;;5.72;100.00
20455;BME280;10386;54.314;10.022;2023-04-07T00:59:28;102048.50;;;5.75;100.00
20455;BME280;10386;54.314;10.022;2023-04-07T01:04:40;102043.38;;;5.67;100.00
20455;BME280;10386;54.314;10.022;2023-04-07T01:07:18;102043.22;;;5.72;100.00
20455;BME280;10386;54.314;10.022;2023-04-07T01:10:02;102047.00;;;5.66;100.00
20455;BME280;10386;54.314;10.022;2023-04-07T01:15:26;102042.47;;;5.67;100.00
20455;BME280;10386;54.314;10.022;2023-04-07T01:18:00;102047.88;;;5.67;100.00
20455;BME280;10386;54.314;10.022;2023-04-07T01:20:33;102039.31;;;5.54;100.00
20455;BME280;10386;54.314;10.022;2023-04-07T01:23:04;102044.72;;;5.53;100.00
20455;BME280;10386;54.314;10.022;2023-04-07T01:30:48;102047.75;;;5.42;100.00
20455;BME280;10386;54.314;10.022;2023-04-07T01:33:17;102047.75;;;5.42;100.00
20455;BME280;10386;54.314;10.022;2023-04-07T01:35:45;102054.34;;;5.61;100.00
20455;BME280;10386;54.314;10.022;2023-04-07T01:38:12;102061.09;;;5.45;100.00
20455;BME280;10386;54.314;10.022;2023-04-07T01:40:40;102063.06;;;5.40;100.00
20455;BME280;10386;54.314;10.022;2023-04-07T01:43:07;102059.72;;;5.33;100.00
20455;BME280;10386;54.314;10.022;2023-04-07T01:45:34;102066.66;;;5.41;100.00
20455;BME280;10386;54.314;10.022;2023-04-07T01:48:06;102060.56;;;5.35;100.00
20455;BME280;10386;54.314;10.022;2023-04-07T01:50:33;102065.31;;;5.27;100.00
20455;BME280;10386;54.314;10.022;2023-04-07T01:53:02;102065.84;;;5.38;100.00
20455;BME280;10386;54.314;10.022;2023-04-07T01:55:30;102065.28;;;5.28;100.00
20455;BME280;10386;54.314;10.022;2023-04-07T01:57:57;102074.72;;;5.12;100.00
20455;BME280;10386;54.314;10.022;2023-04-07T02:00:24;102069.38;;;5.11;100.00
20455;BME280;10386;54.314;10.022;2023-04-07T02:02:54;102073.03;;;5.08;100.00
20455;BME280;10386;54.314;10.022;2023-04-07T02:05:27;102064.84;;;5.13;100.00
20455;BME280;10386;54.314;10.022;2023-04-07T02:07:59;102067.25;;;5.22;100.00
20455;BME280;10386;54.314;10.022;2023-04-07T02:10:28;102060.06;;;5.22;100.00
20455;BME280;10386;54.314;10.022;2023-04-07T02:12:56;102068.25;;;5.19;100.00
20455;BME280;10386;54.314;10.022;2023-04-07T02:15:25;102062.31;;;5.07;100.00
20455;BME280;10386;54.314;10.022;2023-04-07T02:17:53;102074.19;;;5.00;100.00
20455;BME280;10386;54.314;10.022;2023-04-07T02:20:22;102071.41;;;5.03;100.00
20455;BME280;10386;54.314;10.022;2023-04-07T02:22:49;102071.34;;;5.04;100.00
20455;BME280;10386;54.314;10.022;2023-04-07T02:25:27;102074.66;;;5.14;100.00
20455;BME280;10386;54.314;10.022;2023-04-07T02:27:54;102080.44;;;5.00;100.00
20455;BME280;10386;54.314;10.022;2023-04-07T02:30:22;102084.22;;;4.95;100.00
20455;BME280;10386;54.314;10.022;2023-04-07T02:32:49;102069.75;;;4.97;100.00
20455;BME280;10386;54.314;10.022;2023-04-07T02:35:16;102077.84;;;4.97;100.00
20455;BME280;10386;54.314;10.022;2023-04-07T02:37:43;102072.59;;;4.93;100.00
20455;BME280;10386;54.314;10.022;2023-04-07T02:40:11;102084.22;;;4.93;100.00
20455;BME280;10386;54.314;10.022;2023-04-07T02:42:38;102081.50;;;4.95;100.00
20455;BME280;10386;54.314;10.022;2023-04-07T02:45:05;102085.16;;;4.92;100.00
20455;BME280;10386;54.314;10.022;2023-04-07T02:47:33;102089.13;;;4.79;100.00
20455;BME280;10386;54.314;10.022;2023-04-07T02:50:00;102091.06;;;4.74;100.00
20455;BME280;10386;54.314;10.022;2023-04-07T02:52:27;102095.16;;;4.87;100.00
20455;BME280;10386;54.314;10.022;2023-04-07T02:54:53;102091.56;;;4.88;100.00
20455;BME280;10386;54.314;10.022;2023-04-07T02:57:20;102093.66;;;4.77;100.00
20455;BME280;10386;54.314;10.022;2023-04-07T02:59:47;102099.22;;;4.71;100.00
20455;BME280;10386;54.314;10.022;2023-04-07T03:02:14;102095.75;;;4.68;100.00
20455;BME280;10386;54.314;10.022;2023-04-07T03:04:41;102105.88;;;4.57;100.00
20455;BME280;10386;54.314;10.022;2023-04-07T03:07:08;102101.41;;;4.57;100.00
20455;BME280;10386;54.314;10.022;2023-04-07T03:09:34;102109.22;;;4.66;100.00
20455;BME280;10386;54.314;10.022;2023-04-07T03:12:02;102102.34;;;4.55;100.00
20455;BME280;10386;54.314;10.022;2023-04-07T03:14:28;102106.63;;;4.62;100.00
20455;BME280;10386;54.314;10.022;2023-04-07T03:16:55;102103.25;;;4.55;100.00
20455;BME280;10386;54.314;10.022;2023-04-07T03:19:22;102102.44;;;4.52;100.00
20455;BME280;10386;54.314;10.022;2023-04-07T03:21:49;102114.19;;;4.48;100.00
20455;BME280;10386;54.314;10.022;2023-04-07T03:24:16;102114.25;;;4.46;100.00
20455;BME280;10386;54.314;10.022;2023-04-07T03:26:43;102113.31;;;4.47;100.00
20455;BME280;10386;54.314;10.022;2023-04-07T03:29:10;102105.56;;;4.35;100.00
20455;BME280;10386;54.314;10.022;2023-04-07T03:31:37;102112.13;;;4.25;100.00
20455;BME280;10386;54.314;10.022;2023-04-07T03:34:04;102106.56;;;4.31;100.00
20455;BME280;10386;54.314;10.022;2023-04-07T03:36:30;102107.34;;;4.36;100.00
20455;BME280;10386;54.314;10.022;2023-04-07T03:38:57;102111.19;;;4.26;100.00
20455;BME280;10386;54.314;10.022;2023-04-07T03:41:24;102114.84;;;4.22;100.00
20455;BME280;10386;54.314;10.022;2023-04-07T03:43:54;102117.44;;;4.27;100.00
20455;BME280;10386;54.314;10.022;2023-04-07T03:46:22;102118.44;;;4.21;100.00
20455;BME280;10386;54.314;10.022;2023-04-07T03:48:49;102117.28;;;4.33;100.00
20455;BME280;10386;54.314;10.022;2023-04-07T03:51:17;102121.13;;;4.23;100.00
20455;BME280;10386;54.314;10.022;2023-04-07T03:53:43;102128.41;;;4.18;100.00
20455;BME280;10386;54.314;10.022;2023-04-07T03:56:10;102130.94;;;4.24;100.00
20455;BME280;10386;54.314;10.022;2023-04-07T03:58:37;102132.88;;;4.17;100.00
20455;BME280;10386;54.314;10.022;2023-04-07T04:01:07;102131.63;;;4.32;100.00
20455;BME280;10386;54.314;10.022;2023-04-07T04:03:34;102131.72;;;4.29;100.00
20455;BME280;10386;54.314;10.022;2023-04-07T04:06:01;102133.47;;;4.30;100.00
20455;BME280;10386;54.314;10.022;2023-04-07T04:08:28;102136.31;;;4.25;100.00
20455;BME280;10386;54.314;10.022;2023-04-07T04:10:55;102137.09;;;4.29;100.00
20455;BME280;10386;54.314;10.022;2023-04-07T04:13:22;102139.94;;;4.21;100.00
20455;BME280;10386;54.314;10.022;2023-04-07T04:15:49;102140.88;;;4.20;100.00
20455;BME280;10386;54.314;10.022;2023-04-07T04:18:16;102144.47;;;4.19;100.00
20455;BME280;10386;54.314;10.022;2023-04-07T04:20:42;102150.69;;;4.23;100.00
20455;BME280;10386;54.314;10.022;2023-04-07T04:23:09;102146.47;;;4.11;100.00
20455;BME280;10386;54.314;10.022;2023-04-07T04:25:36;102144.84;;;4.04;100.00
20455;BME280;10386;54.314;10.022;2023-04-07T04:28:05;102148.16;;;4.17;100.00
20455;BME280;10386;54.314;10.022;2023-04-07T04:30:32;102154.44;;;4.16;100.00
20455;BME280;10386;54.314;10.022;2023-04-07T04:32:58;102154.59;;;4.08;100.00
20455;BME280;10386;54.314;10.022;2023-04-07T04:35:25;102160.50;;;4.24;100.00
20455;BME280;10386;54.314;10.022;2023-04-07T04:37:53;102157.84;;;4.22;100.00
20455;BME280;10386;54.314;10.022;2023-04-07T04:40:20;102161.66;;;4.14;100.00
20455;BME280;10386;54.314;10.022;2023-04-07T04:42:47;102176.03;;;4.11;100.00
20455;BME280;10386;54.314;10.022;2023-04-07T04:45:13;102163.22;;;4.22;100.00
20455;BME280;10386;54.314;10.022;2023-04-07T04:47:40;102174.19;;;4.13;100.00
20455;BME280;10386;54.314;10.022;2023-04-07T04:50:09;102166.88;;;4.20;100.00
20455;BME280;10386;54.314;10.022;2023-04-07T04:52:36;102174.97;;;4.18;100.00
20455;BME280;10386;54.314;10.022;2023-04-07T04:55:05;102181.63;;;4.03;100.00
20455;BME280;10386;54.314;10.022;2023-04-07T04:57:32;102176.72;;;4.21;100.00
20455;BME280;10386;54.314;10.022;2023-04-07T05:00:02;102183.94;;;4.17;100.00
20455;BME280;10386;54.314;10.022;2023-04-07T05:02:29;102183.78;;;4.25;100.00
20455;BME280;10386;54.314;10.022;2023-04-07T05:04:56;102195.44;;;4.25;100.00
20455;BME280;10386;54.314;10.022;2023-04-07T05:07:24;102191.88;;;4.23;100.00
20455;BME280;10386;54.314;10.022;2023-04-07T05:09:50;102200.91;;;4.19;100.00
20455;BME280;10386;54.314;10.022;2023-04-07T05:12:17;102207.06;;;4.26;100.00
20455;BME280;10386;54.314;10.022;2023-04-07T05:14:44;102207.81;;;4.32;100.00
20455;BME280;10386;54.314;10.022;2023-04-07T05:17:11;102197.69;;;4.42;100.00
20455;BME280;10386;54.314;10.022;2023-04-07T05:19:37;102200.44;;;4.39;100.00
20455;BME280;10386;54.314;10.022;2023-04-07T05:22:04;102206.38;;;4.53;100.00
20455;BME280;10386;54.314;10.022;2023-04-07T05:24:31;102210.97;;;4.49;100.00
20455;BME280;10386;54.314;10.022;2023-04-07T05:26:58;102213.50;;;4.54;100.00
20455;BME280;10386;54.314;10.022;2023-04-07T05:29:25;102208.91;;;4.59;100.00
20455;BME280;10386;54.314;10.022;2023-04-07T05:31:51;102215.63;;;4.76;100.00
20455;BME280;10386;54.314;10.022;2023-04-07T05:34:19;102208.63;;;4.71;100.00
20455;BME280;10386;54.314;10.022;2023-04-07T05:36:45;102211.50;;;4.63;100.00
20455;BME280;10386;54.314;10.022;2023-04-07T05:39:12;102213.78;;;4.78;100.00
20455;BME280;10386;54.314;10.022;2023-04-07T05:41:39;102204.97;;;4.73;100.00
20455;BME280;10386;54.314;10.022;2023-04-07T05:44:06;102211.94;;;4.80;100.00
20455;BME280;10386;54.314;10.022;2023-04-07T05:46:32;102209.84;;;4.93;100.00
20455;BME280;10386;54.314;10.022;2023-04-07T05:48:59;102213.13;;;5.02;100.00
20455;BME280;10386;54.314;10.022;2023-04-07T05:51:44;102210.63;;;4.96;100.00
20455;BME280;10386;54.314;10.022;2023-04-07T05:54:13;102217.56;;;5.05;100.00
20455;BME280;10386;54.314;10.022;2023-04-07T05:56:40;102207.69;;;5.05;100.00
20455;BME280;10386;54.314;10.022;2023-04-07T05:59:07;102212.41;;;5.29;100.00
20455;BME280;10386;54.314;10.022;2023-04-07T06:01:34;102205.34;;;5.25;100.00
20455;BME280;10386;54.314;10.022;2023-04-07T06:04:01;102216.47;;;5.43;100.00
20455;BME280;10386;54.314;10.022;2023-04-07T06:06:29;102217.66;;;5.34;100.00
20455;BME280;10386;54.314;10.022;2023-04-07T06:08:56;102225.31;;;5.48;100.00
20455;BME280;10386;54.314;10.022;2023-04-07T06:11:24;102223.97;;;5.64;100.00
20455;BME280;10386;54.314;10.022;2023-04-07T06:13:52;102224.47;;;5.77;100.00
20455;BME280;10386;54.314;10.022;2023-04-07T06:16:18;102210.03;;;7.39;100.00
20455;BME280;10386;54.314;10.022;2023-04-07T06:18:45;102188.47;;;8.08;100.00
20455;BME280;10386;54.314;10.022;2023-04-07T06:21:12;102158.56;;;8.97;100.00
20455;BME280;10386;54.314;10.022;2023-04-07T06:23:39;102142.34;;;9.73;100.00
20455;BME280;10386;54.314;10.022;2023-04-07T06:26:09;102141.22;;;10.34;100.00
20455;BME280;10386;54.314;10.022;2023-04-07T06:28:37;102129.63;;;10.83;100.00
20455;BME280;10386;54.314;10.022;2023-04-07T06:31:04;102116.66;;;11.22;100.00
20455;BME280;10386;54.314;10.022;2023-04-07T06:33:31;102123.44;;;10.63;100.00
20455;BME280;10386;54.314;10.022;2023-04-07T06:35:58;102111.19;;;10.37;100.00
20455;BME280;10386;54.314;10.022;2023-04-07T06:38:24;102144.41;;;11.11;100.00
20455;BME280;10386;54.314;10.022;2023-04-07T06:40:51;102110.75;;;10.80;100.00
20455;BME280;10386;54.314;10.022;2023-04-07T06:43:18;102123.03;;;10.18;100.00
20455;BME280;10386;54.314;10.022;2023-04-07T06:45:45;102127.22;;;11.28;100.00
20455;BME280;10386;54.314;10.022;2023-04-07T06:48:12;102135.31;;;11.62;100.00
20455;BME280;10386;54.314;10.022;2023-04-07T06:50:38;102111.91;;;11.59;100.00
20455;BME280;10386;54.314;10.022;2023-04-07T06:53:05;102137.69;;;10.32;100.00
20455;BME280;10386;54.314;10.022;2023-04-07T06:55:32;102144.03;;;9.76;100.00
20455;BME280;10386;54.314;10.022;2023-04-07T06:57:58;102178.53;;;9.34;100.00
20455;BME280;10386;54.314;10.022;2023-04-07T07:00:25;102192.81;;;8.78;100.00
20455;BME280;10386;54.314;10.022;2023-04-07T07:02:55;102224.91;;;7.75;100.00
20455;BME280;10386;54.314;10.022;2023-04-07T07:05:23;102236.13;;;7.65;100.00
20455;BME280;10386;54.314;10.022;2023-04-07T07:07:49;102263.75;;;7.96;100.00
20455;BME280;10386;54.314;10.022;2023-04-07T07:10:17;102258.91;;;8.05;100.00
20455;BME280;10386;54.314;10.022;2023-04-07T07:12:45;102252.72;;;8.02;100.00
20455;BME280;10386;54.314;10.022;2023-04-07T07:15:12;102252.19;;;7.92;100.00
20455;BME280;10386;54.314;10.022;2023-04-07T07:17:39;102252.09;;;7.71;100.00
20455;BME280;10386;54.314;10.022;2023-04-07T07:20:06;102255.09;;;8.11;100.00
20455;BME280;10386;54.314;10.022;2023-04-07T07:22:33;102241.91;;;8.02;100.00
20455;BME280;10386;54.314;10.022;2023-04-07T07:25:00;102257.72;;;8.12;100.00
20455;BME280;10386;54.314;10.022;2023-04-07T07:27:27;102261.38;;;8.11;100.00
20455;BME280;10386;54.314;10.022;2023-04-07T07:29:53;102252.44;;;8.32;100.00
20455;BME280;10386;54.314;10.022;2023-04-07T07:32:20;102251.59;;;8.31;100.00
20455;BME280;10386;54.314;10.022;2023-04-07T07:34:47;102244.19;;;8.58;100.00
20455;BME280;10386;54.314;10.022;2023-04-07T07:37:14;102229.38;;;8.66;100.00
20455;BME280;10386;54.314;10.022;2023-04-07T07:39:41;102227.66;;;8.85;100.00
20455;BME280;10386;54.314;10.022;2023-04-07T07:42:08;102223.72;;;8.72;100.00
20455;BME280;10386;54.314;10.022;2023-04-07T07:44:34;102220.00;;;8.75;100.00
20455;BME280;10386;54.314;10.022;2023-04-07T07:47:01;102214.84;;;8.69;100.00
20455;BME280;10386;54.314;10.022;2023-04-07T07:49:28;102222.75;;;8.95;100.00
20455;BME280;10386;54.314;10.022;2023-04-07T07:51:54;102214.72;;;9.13;100.00
20455;BME280;10386;54.314;10.022;2023-04-07T07:54:21;102217.84;;;9.24;100.00
20455;BME280;10386;54.314;10.022;2023-04-07T07:56:48;102218.56;;;9.28;100.00
20455;BME280;10386;54.314;10.022;2023-04-07T07:59:15;102206.78;;;9.29;100.00
20455;BME280;10386;54.314;10.022;2023-04-07T08:01:43;102200.50;;;9.28;100.00
20455;BME280;10386;54.314;10.022;2023-04-07T08:04:10;102205.22;;;9.43;100.00
20455;BME280;10386;54.314;10.022;2023-04-07T08:06:37;102208.97;;;9.41;100.00
20455;BME280;10386;54.314;10.022;2023-04-07T08:09:04;102198.38;;;9.35;100.00
20455;BME280;10386;54.314;10.022;2023-04-07T08:11:31;102210.53;;;9.46;100.00
20455;BME280;10386;54.314;10.022;2023-04-07T08:13:58;102215.09;;;9.64;100.00
20455;BME280;10386;54.314;10.022;2023-04-07T08:16:25;102209.88;;;9.79;100.00
20455;BME280;10386;54.314;10.022;2023-04-07T08:18:52;102223.25;;;9.84;100.00
20455;BME280;10386;54.314;10.022;2023-04-07T08:21:19;102198.66;;;10.07;100.00
20455;BME280;10386;54.314;10.022;2023-04-07T08:23:46;102196.31;;;10.36;100.00
20455;BME280;10386;54.314;10.022;2023-04-07T08:26:13;102198.94;;;10.19;100.00
20455;BME280;10386;54.314;10.022;2023-04-07T08:28:40;102194.25;;;10.41;100.00
20455;BME280;10386;54.314;10.022;2023-04-07T08:31:07;102214.44;;;10.71;100.00
20455;BME280;10386;54.314;10.022;2023-04-07T08:33:34;102215.88;;;10.43;100.00
20455;BME280;10386;54.314;10.022;2023-04-07T08:36:00;102235.03;;;10.58;100.00
20455;BME280;10386;54.314;10.022;2023-04-07T08:38:27;102227.19;;;10.52;100.00
20455;BME280;10386;54.314;10.022;2023-04-07T08:41:02;102237.75;;;10.58;100.00
20455;BME280;10386;54.314;10.022;2023-04-07T08:43:29;102246.19;;;10.71;100.00
20455;BME280;10386;54.314;10.022;2023-04-07T08:45:56;102236.16;;;10.90;100.00
20455;BME280;10386;54.314;10.022;2023-04-07T08:48:23;102208.56;;;10.80;100.00
20455;BME280;10386;54.314;10.022;2023-04-07T08:50:54;102214.59;;;10.68;100.00
20455;BME280;10386;54.314;10.022;2023-04-07T08:53:27;102219.69;;;10.57;100.00
20455;BME280;10386;54.314;10.022;2023-04-07T08:55:55;102212.00;;;10.30;100.00
20455;BME280;10386;54.314;10.022;2023-04-07T08:58:22;102216.97;;;10.57;100.00
20455;BME280;10386;54.314;10.022;2023-04-07T09:00:49;102213.91;;;10.46;100.00
20455;BME280;10386;54.314;10.022;2023-04-07T09:03:18;102216.22;;;10.54;100.00
20455;BME280;10386;54.314;10.022;2023-04-07T09:05:52;102214.09;;;10.96;100.00
20455;BME280;10386;54.314;10.022;2023-04-07T09:08:21;102172.06;;;11.19;100.00
20455;BME280;10386;54.314;10.022;2023-04-07T09:10:48;102165.44;;;11.25;100.00
20455;BME280;10386;54.314;10.022;2023-04-07T09:13:15;102148.16;;;11.26;97.47
20455;BME280;10386;54.314;10.022;2023-04-07T09:15:42;102151.19;;;11.03;96.66
20455;BME280;10386;54.314;10.022;2023-04-07T09:18:09;102144.31;;;10.96;95.16
20455;BME280;10386;54.314;10.022;2023-04-07T09:20:56;102161.09;;;10.87;96.05
20455;BME280;10386;54.314;10.022;2023-04-07T09:23:31;102170.69;;;10.94;96.77
20455;BME280;10386;54.314;10.022;2023-04-07T09:25:59;102175.19;;;11.12;97.54
20455;BME280;10386;54.314;10.022;2023-04-07T09:28:43;102170.16;;;11.21;96.11
20455;BME280;10386;54.314;10.022;2023-04-07T09:31:10;102193.91;;;11.35;97.54
20455;BME280;10386;54.314;10.022;2023-04-07T09:33:37;102207.19;;;11.58;99.67
20455;BME280;10386;54.314;10.022;2023-04-07T09:36:05;102217.50;;;11.68;100.00
20455;BME280;10386;54.314;10.022;2023-04-07T09:38:37;102217.88;;;11.44;99.28
20455;BME280;10386;54.314;10.022;2023-04-07T09:41:08;102214.44;;;11.06;100.00
20455;BME280;10386;54.314;10.022;2023-04-07T09:43:37;102228.75;;;11.10;100.00
20455;BME280;10386;54.314;10.022;2023-04-07T09:46:12;102230.75;;;10.71;100.00
20455;BME280;10386;54.314;10.022;2023-04-07T09:48:40;102247.56;;;10.96;100.00
20455;BME280;10386;54.314;10.022;2023-04-07T09:51:17;102254.09;;;11.10;100.00
20455;BME280;10386;54.314;10.022;2023-04-07T09:53:46;102253.16;;;10.93;100.00
20455;BME280;10386;54.314;10.022;2023-04-07T09:56:18;102221.44;;;10.77;100.00
20455;BME280;10386;54.314;10.022;2023-04-07T09:58:49;102260.63;;;10.71;100.00
20455;BME280;10386;54.314;10.022;2023-04-07T10:01:20;102279.28;;;10.79;100.00
20455;BME280;10386;54.314;10.022;2023-04-07T10:03:47;102295.63;;;10.77;100.00
20455;BME280;10386;54.314;10.022;2023-04-07T10:06:20;102301.16;;;10.57;100.00
20455;BME280;10386;54.314;10.022;2023-04-07T10:08:47;102326.94;;;10.86;100.00
20455;BME280;10386;54.314;10.022;2023-04-07T10:11:14;102321.03;;;10.95;100.00
20455;BME280;10386;54.314;10.022;2023-04-07T10:13:41;102318.81;;;11.02;100.00
20455;BME280;10386;54.314;10.022;2023-04-07T10:16:08;102313.19;;;10.89;100.00
20455;BME280;10386;54.314;10.022;2023-04-07T10:18:35;102313.13;;;11.42;100.00
20455;BME280;10386;54.314;10.022;2023-04-07T10:21:04;102301.28;;;11.43;100.00
20455;BME280;10386;54.314;10.022;2023-04-07T10:23:46;102286.03;;;11.41;100.00
20455;BME280;10386;54.314;10.022;2023-04-07T10:26:16;102285.28;;;11.20;100.00
20455;BME280;10386;54.314;10.022;2023-04-07T10:28:48;102278.28;;;10.98;100.00
20455;BME280;10386;54.314;10.022;2023-04-07T10:31:16;102295.44;;;11.17;100.00
20455;BME280;10386;54.314;10.022;2023-04-07T10:33:51;102254.72;;;10.98;100.00
20455;BME280;10386;54.314;10.022;2023-04-07T10:36:19;102272.63;;;11.02;100.00
20455;BME280;10386;54.314;10.022;2023-04-07T10:41:37;102259.91;;;11.03;100.00
20455;BME280;10386;54.314;10.022;2023-04-07T10:47:08;102283.44;;;10.86;100.00
20455;BME280;10386;54.314;10.022;2023-04-07T10:49:35;102322.78;;;11.14;100.00
20455;BME280;10386;54.314;10.022;2023-04-07T10:54:38;102310.69;;;11.55;100.00
20455;BME280;10386;54.314;10.022;2023-04-07T10:59:38;102268.75;;;11.25;100.00
20455;BME280;10386;54.314;10.022;2023-04-07T11:04:44;102244.56;;;10.67;100.00
20455;BME280;10386;54.314;10.022;2023-04-07T11:07:12;102289.94;;;10.65;100.00
20455;BME280;10386;54.314;10.022;2023-04-07T11:09:40;102297.19;;;10.64;100.00
20455;BME280;10386;54.314;10.022;2023-04-07T11:12:07;102304.13;;;10.88;100.00
20455;BME280;10386;54.314;10.022;2023-04-07T11:14:34;102267.81;;;10.54;100.00
20455;BME280;10386;54.314;10.022;2023-04-07T11:17:03;102299.84;;;10.66;100.00
20455;BME280;10386;54.314;10.022;2023-04-07T11:19:30;102288.28;;;10.24;100.00
20455;BME280;10386;54.314;10.022;2023-04-07T11:22:16;102265.69;;;9.85;100.00
20455;BME280;10386;54.314;10.022;2023-04-07T11:24:55;102281.19;;;10.21;100.00
20455;BME280;10386;54.314;10.022;2023-04-07T11:27:22;102239.59;;;10.21;100.00
20455;BME280;10386;54.314;10.022;2023-04-07T11:29:49;102268.41;;;10.05;100.00
20455;BME280;10386;54.314;10.022;2023-04-07T11:32:22;102302.09;;;10.38;100.00
20455;BME280;10386;54.314;10.022;2023-04-07T11:34:51;102319.13;;;10.78;100.00
20455;BME280;10386;54.314;10.022;2023-04-07T11:37:19;102324.16;;;11.04;100.00
20455;BME280;10386;54.314;10.022;2023-04-07T11:39:54;102327.19;;;11.33;100.00
20455;BME280;10386;54.314;10.022;2023-04-07T11:42:32;102295.22;;;11.03;100.00
20455;BME280;10386;54.314;10.022;2023-04-07T11:44:59;102297.25;;;10.81;100.00
20455;BME280;10386;54.314;10.022;2023-04-07T11:47:33;102265.09;;;10.54;100.00
20455;BME280;10386;54.314;10.022;2023-04-07T11:50:00;102294.03;;;10.36;100.00
20455;BME280;10386;54.314;10.022;2023-04-07T11:52:27;102287.97;;;9.91;100.00
20455;BME280;10386;54.314;10.022;2023-04-07T11:54:54;102289.13;;;9.66;100.00
20455;BME280;10386;54.314;10.022;2023-04-07T11:57:28;102329.06;;;9.82;100.00
20455;BME280;10386;54.314;10.022;2023-04-07T12:00:11;102357.03;;;10.04;100.00
20455;BME280;10386;54.314;10.022;2023-04-07T12:02:38;102363.97;;;10.11;100.00
20455;BME280;10386;54.314;10.022;2023-04-07T12:05:05;102354.78;;;9.94;100.00
20455;BME280;10386;54.314;10.022;2023-04-07T12:07:33;102348.75;;;10.07;100.00
20455;BME280;10386;54.314;10.022;2023-04-07T12:10:20;102330.22;;;9.77;100.00
20455;BME280;10386;54.314;10.022;2023-04-07T12:12:47;102325.59;;;9.59;100.00
20455;BME280;10386;54.314;10.022;2023-04-07T12:15:14;102352.13;;;9.92;100.00
20455;BME280;10386;54.314;10.022;2023-04-07T12:17:46;102337.47;;;9.96;100.00
20455;BME280;10386;54.314;10.022;2023-04-07T12:20:14;102320.47;;;9.93;100.00
20455;BME280;10386;54.314;10.022;2023-04-07T12:22:41;102310.91;;;9.84;100.00
20455;BME280;10386;54.314;10.022;2023-04-07T12:25:08;102340.69;;;9.86;100.00
20455;BME280;10386;54.314;10.022;2023-04-07T12:27:35;102307.25;;;10.05;100.00
20455;BME280;10386;54.314;10.022;2023-04-07T12:30:10;102319.00;;;10.44;100.00
20455;BME280;10386;54.314;10.022;2023-04-07T12:32:38;102311.84;;;9.83;100.00
20455;BME280;10386;54.314;10.022;2023-04-07T12:35:05;102333.94;;;9.94;100.00
20455;BME280;10386;54.314;10.022;2023-04-07T12:37:32;102355.28;;;10.03;100.00
20455;BME280;10386;54.314;10.022;2023-04-07T12:39:59;102383.16;;;10.27;100.00
20455;BME280;10386;54.314;10.022;2023-04-07T12:42:26;102399.03;;;10.16;100.00
20455;BME280;10386;54.314;10.022;2023-04-07T12:44:53;102411.53;;;10.20;100.00
20455;BME280;10386;54.314;10.022;2023-04-07T12:47:20;102399.25;;;10.31;100.00
20455;BME280;10386;54.314;10.022;2023-04-07T12:49:47;102382.00;;;10.12;100.00
20455;BME280;10386;54.314;10.022;2023-04-07T12:52:15;102387.50;;;10.31;100.00
20455;BME280;10386;54.314;10.022;2023-04-07T12:54:42;102391.00;;;9.93;100.00
20455;BME280;10386;54.314;10.022;2023-04-07T12:57:10;102389.47;;;10.07;100.00
20455;BME280;10386;54.314;10.022;2023-04-07T12:59:37;102393.00;;;10.09;100.00
20455;BME280;10386;54.314;10.022;2023-04-07T13:02:04;102415.97;;;10.41;100.00
20455;BME280;10386;54.314;10.022;2023-04-07T13:04:31;102416.97;;;9.98;100.00
20455;BME280;10386;54.314;10.022;2023-04-07T13:06:58;102388.88;;;9.79;100.00